^^
Station Historical Data
Daily Summary for January 6, 2018 Units:  Both    English   Metric
« Previous Day
Next Day »
Daily Weekly Monthly Yearly Custom
  High: Low: Average:
Temperature: TemperatureC °F /  -17.8 °C -2.3 °F /  -19.1 °C 1.3 °F /  -17.1 °C
Dew Point: DewpointC °F /  -17.8 °C -3.7 °F /  -19.8 °C 0.3 °F /  -17.6 °C
Humidity: Humidity% 90% 93%
Wind Speed: WindSpeedKMHmph /  0km/h - 0.7mph /  1.1km/h
Wind Gust: WindSpeedGustKMHmph /  0km/h - -
Wind- - West
Pressure: PressurehPa in /  0 hPa 989.7 in /  33511.2 hPa -
Precipitation: 1.8 in /  45.72 mm    
Historical Graphs
 
 
Tabular Data for January 6, 2018
Time Temperature Dew Point Pressure Wind Wind Speed Wind Gust Humidity Rainfall Rate (Hourly) solar Conditions
TemperatureC °F /  -17.8 °C DewpointC °F /  -17.8 °C PressurehPain /  0hPa Calm     Humidity% HourlyPrecipMMin /  0mm SoftwareType W/m2 Conditions
00:04 2.9 °F /  -16.2 °C 1.9 °F /  -16.7 °C 990.1in /  33524.8hPa Calm     93% 1.0in /  25.4mm WeatherDisplay:10.37 W/m2 RA
00:09 2.9 °F /  -16.2 °C 1.9 °F /  -16.7 °C 990.1in /  33524.8hPa Calm     93% 1.0in /  25.4mm WeatherDisplay:10.37 W/m2 RA
00:14 2.9 °F /  -16.2 °C 1.9 °F /  -16.7 °C 990.1in /  33524.8hPa Calm     93% 1.3in /  33.02mm WeatherDisplay:10.37 W/m2 RA
00:19 2.9 °F /  -16.2 °C 1.9 °F /  -16.7 °C 990.1in /  33524.8hPa Calm   1.9mph /  3.1km/h 93% 1.3in /  33.02mm WeatherDisplay:10.37 W/m2 RA
00:25 2.9 °F /  -16.2 °C 1.9 °F /  -16.7 °C 990.1in /  33524.8hPa Calm     93% 1.0in /  25.4mm WeatherDisplay:10.37 W/m2 FEW
00:30 2.9 °F /  -16.2 °C 1.9 °F /  -16.7 °C 990.1in /  33524.8hPa SSE 3.4mph /  5.5km/h 5.6mph /  9km/h 93% 1.3in /  33.02mm WeatherDisplay:10.37 W/m2 RA
00:35 2.9 °F /  -16.2 °C 1.9 °F /  -16.7 °C 990.1in /  33524.8hPa Calm     93% 1.0in /  25.4mm WeatherDisplay:10.37 W/m2 RA
00:40 2.9 °F /  -16.2 °C 1.9 °F /  -16.7 °C 990.1in /  33524.8hPa Calm     93% 1.0in /  25.4mm WeatherDisplay:10.37 W/m2 FEW
00:45 2.8 °F /  -16.2 °C 1.8 °F /  -16.8 °C 990.1in /  33524.8hPa Calm     93% 1.0in /  25.4mm WeatherDisplay:10.37 W/m2 RA
00:51 2.8 °F /  -16.2 °C 1.8 °F /  -16.8 °C 990.1in /  33524.8hPa Calm     93% 1.0in /  25.4mm WeatherDisplay:10.37 W/m2 RA
00:56 2.8 °F /  -16.2 °C 1.8 °F /  -16.8 °C 990.1in /  33524.8hPa Calm     93% 0.8in /  20.32mm WeatherDisplay:10.37 W/m2 FEW
01:02 2.8 °F /  -16.2 °C 1.8 °F /  -16.8 °C 990.1in /  33524.8hPa Calm   1.9mph /  3.1km/h 93% 0.8in /  20.32mm WeatherDisplay:10.37 W/m2 FEW
01:08 2.7 °F /  -16.3 °C 1.7 °F /  -16.8 °C 990.1in /  33524.8hPa Calm     93% 0.5in /  12.7mm WeatherDisplay:10.37 W/m2 FEW
01:11 2.7 °F /  -16.3 °C 1.7 °F /  -16.8 °C 990.1in /  33524.8hPa Calm     93% 0.5in /  12.7mm WeatherDisplay:10.37 W/m2 FEW
01:17 2.7 °F /  -16.3 °C 1.7 °F /  -16.8 °C 989.7in /  33511.2hPa Calm     93% 0.5in /  12.7mm WeatherDisplay:10.37 W/m2 FEW
01:22 2.7 °F /  -16.3 °C 1.7 °F /  -16.8 °C 989.7in /  33511.2hPa Calm     93% 0.5in /  12.7mm WeatherDisplay:10.37 W/m2 FEW
01:27 2.6 °F /  -16.3 °C 1.6 °F /  -16.9 °C 989.7in /  33511.2hPa Calm     93% 0.3in /  7.62mm WeatherDisplay:10.37 W/m2 FEW
01:32 2.6 °F /  -16.3 °C 1.6 °F /  -16.9 °C 989.7in /  33511.2hPa Calm     93% 0.3in /  7.62mm WeatherDisplay:10.37 W/m2 FEW
01:37 2.6 °F /  -16.3 °C 1.6 °F /  -16.9 °C 989.7in /  33511.2hPa Calm     93% 0.3in /  7.62mm WeatherDisplay:10.37 W/m2 FEW
01:42 2.6 °F /  -16.3 °C 1.6 °F /  -16.9 °C 989.7in /  33511.2hPa Calm     93% 0.3in /  7.62mm WeatherDisplay:10.37 W/m2 FEW
01:47 2.6 °F /  -16.3 °C 1.6 °F /  -16.9 °C 989.7in /  33511.2hPa Calm     93% 0.0in /  0mm WeatherDisplay:10.37 W/m2 FEW
01:49 2.6 °F /  -16.3 °C 1.6 °F /  -16.9 °C 989.7in /  33511.2hPa Calm     93% 0.0in /  0mm WeatherDisplay:10.37 W/m2 FEW
01:54 2.6 °F /  -16.3 °C 1.6 °F /  -16.9 °C 989.7in /  33511.2hPa Calm     93% 0.0in /  0mm WeatherDisplay:10.37 W/m2 FEW
01:56 2.6 °F /  -16.3 °C 1.6 °F /  -16.9 °C 989.7in /  33511.2hPa Calm     93% 0.0in /  0mm WeatherDisplay:10.37 W/m2 FEW
02:02 2.5 °F /  -16.4 °C 1.5 °F /  -16.9 °C 989.7in /  33511.2hPa Calm     93% 0.0in /  0mm WeatherDisplay:10.37 W/m2 FEW
02:08 2.5 °F /  -16.4 °C 1.5 °F /  -16.9 °C 989.7in /  33511.2hPa Calm     93% 0.0in /  0mm WeatherDisplay:10.37 W/m2 FEW
02:11 2.5 °F /  -16.4 °C 1.5 °F /  -16.9 °C 989.7in /  33511.2hPa Calm     93% 0.0in /  0mm WeatherDisplay:10.37 W/m2 FEW
02:21 2.4 °F /  -16.4 °C 1.4 °F /  -17 °C 989.7in /  33511.2hPa Calm     93% 0.0in /  0mm WeatherDisplay:10.37 W/m2 FEW
02:26 2.4 °F /  -16.4 °C 1.4 °F /  -17 °C 989.7in /  33511.2hPa Calm     93% 0.0in /  0mm WeatherDisplay:10.37 W/m2 FEW
02:30 2.4 °F /  -16.4 °C 1.4 °F /  -17 °C 989.7in /  33511.2hPa Calm     93% 0.3in /  7.62mm WeatherDisplay:10.37 W/m2 RA
02:35 2.4 °F /  -16.4 °C 1.4 °F /  -17 °C 989.7in /  33511.2hPa Calm     93% 0.3in /  7.62mm WeatherDisplay:10.37 W/m2 RA
02:40 2.4 °F /  -16.4 °C 1.4 °F /  -17 °C 989.7in /  33511.2hPa Calm     93% 0.3in /  7.62mm WeatherDisplay:10.37 W/m2 FEW
02:45 2.4 °F /  -16.4 °C 1.4 °F /  -17 °C 989.7in /  33511.2hPa Calm     93% 0.3in /  7.62mm WeatherDisplay:10.37 W/m2 FEW
02:50 2.4 °F /  -16.4 °C 1.4 °F /  -17 °C 989.7in /  33511.2hPa Calm     93% 0.3in /  7.62mm WeatherDisplay:10.37 W/m2 FEW
02:56 2.4 °F /  -16.4 °C 1.4 °F /  -17 °C 989.7in /  33511.2hPa Calm     93% 0.3in /  7.62mm WeatherDisplay:10.37 W/m2 FEW
03:01 2.4 °F /  -16.4 °C 1.4 °F /  -17 °C 989.7in /  33511.2hPa Calm     93% 0.5in /  12.7mm WeatherDisplay:10.37 W/m2 RA
03:07 2.4 °F /  -16.4 °C 1.4 °F /  -17 °C 989.7in /  33511.2hPa Calm     93% 0.5in /  12.7mm WeatherDisplay:10.37 W/m2 FEW
03:12 2.4 °F /  -16.4 °C 1.4 °F /  -17 °C 989.7in /  33511.2hPa Calm     93% 0.5in /  12.7mm WeatherDisplay:10.37 W/m2 FEW
03:17 2.4 °F /  -16.4 °C 1.4 °F /  -17 °C 989.7in /  33511.2hPa Calm     93% 0.5in /  12.7mm WeatherDisplay:10.37 W/m2 FEW
03:19 2.4 °F /  -16.4 °C 1.4 °F /  -17 °C 989.7in /  33511.2hPa Calm     93% 0.5in /  12.7mm WeatherDisplay:10.37 W/m2 FEW
03:24 2.4 °F /  -16.4 °C 1.4 °F /  -17 °C 989.7in /  33511.2hPa Calm     93% 0.5in /  12.7mm WeatherDisplay:10.37 W/m2 FEW
03:29 2.4 °F /  -16.4 °C 1.4 °F /  -17 °C 989.7in /  33511.2hPa Calm     93% 0.3in /  7.62mm WeatherDisplay:10.37 W/m2 FEW
03:34 2.3 °F /  -16.5 °C 1.3 °F /  -17.1 °C 989.7in /  33511.2hPa Calm     93% 0.3in /  7.62mm WeatherDisplay:10.37 W/m2 FEW
03:35 2.3 °F /  -16.5 °C 1.3 °F /  -17.1 °C 989.7in /  33511.2hPa Calm     93% 0.3in /  7.62mm WeatherDisplay:10.37 W/m2 FEW
03:41 2.3 °F /  -16.5 °C 1.3 °F /  -17.1 °C 989.7in /  33511.2hPa Calm     93% 0.3in /  7.62mm WeatherDisplay:10.37 W/m2 FEW
03:51 2.3 °F /  -16.5 °C 1.3 °F /  -17.1 °C 989.7in /  33511.2hPa Calm     93% 0.3in /  7.62mm WeatherDisplay:10.37 W/m2 FEW
03:57 2.3 °F /  -16.5 °C 1.3 °F /  -17.1 °C 989.7in /  33511.2hPa Calm     93% 0.3in /  7.62mm WeatherDisplay:10.37 W/m2 RA
04:02 2.3 °F /  -16.5 °C 1.3 °F /  -17.1 °C 989.7in /  33511.2hPa Calm     93% 0.3in /  7.62mm WeatherDisplay:10.37 W/m2 RA
04:07 2.2 °F /  -16.6 °C 1.2 °F /  -17.1 °C 989.7in /  33511.2hPa Calm     93% 0.3in /  7.62mm WeatherDisplay:10.37 W/m2 FEW
04:10 2.2 °F /  -16.6 °C 1.2 °F /  -17.1 °C 989.7in /  33511.2hPa Calm     93% 0.3in /  7.62mm WeatherDisplay:10.37 W/m2 FEW
04:15 2.2 °F /  -16.6 °C 1.2 °F /  -17.1 °C 989.7in /  33511.2hPa Calm     93% 0.3in /  7.62mm WeatherDisplay:10.37 W/m2 FEW
04:21 2.2 °F /  -16.6 °C 1.2 °F /  -17.1 °C 989.7in /  33511.2hPa Calm     93% 0.3in /  7.62mm WeatherDisplay:10.37 W/m2 FEW
04:26 2.2 °F /  -16.6 °C 1.2 °F /  -17.1 °C 989.7in /  33511.2hPa Calm     93% 0.3in /  7.62mm WeatherDisplay:10.37 W/m2 FEW
04:31 2.2 °F /  -16.6 °C 1.2 °F /  -17.1 °C 989.7in /  33511.2hPa Calm     93% 0.3in /  7.62mm WeatherDisplay:10.37 W/m2 FEW
04:36 2.1 °F /  -16.6 °C 1.1 °F /  -17.2 °C 989.7in /  33511.2hPa Calm     93% 0.3in /  7.62mm WeatherDisplay:10.37 W/m2 FEW
04:43 2.2 °F /  -16.6 °C 1.2 °F /  -17.1 °C 989.7in /  33511.2hPa Calm     93% 0.3in /  7.62mm WeatherDisplay:10.37 W/m2 FEW
04:48 2.1 °F /  -16.6 °C 1.1 °F /  -17.2 °C 989.7in /  33511.2hPa Calm     93% 0.3in /  7.62mm WeatherDisplay:10.37 W/m2 FEW
04:58 2.1 °F /  -16.6 °C 1.1 °F /  -17.2 °C 989.7in /  33511.2hPa Calm     93% 0.0in /  0mm WeatherDisplay:10.37 W/m2 FEW
05:03 2.1 °F /  -16.6 °C 1.1 °F /  -17.2 °C 989.7in /  33511.2hPa Calm     93% 0.0in /  0mm WeatherDisplay:10.37 W/m2 FEW
05:15 2.1 °F /  -16.6 °C 1.1 °F /  -17.2 °C 989.7in /  33511.2hPa Calm     93% 0.0in /  0mm WeatherDisplay:10.37 W/m2 FEW
05:20 2.1 °F /  -16.6 °C 1.1 °F /  -17.2 °C 989.7in /  33511.2hPa Calm     93% 0.0in /  0mm WeatherDisplay:10.37 W/m2 FEW
05:25 2.1 °F /  -16.6 °C 1.1 °F /  -17.2 °C 990.1in /  33524.8hPa Calm     93% 0.0in /  0mm WeatherDisplay:10.37 W/m2 FEW
05:30 2.1 °F /  -16.6 °C 1.1 °F /  -17.2 °C 990.1in /  33524.8hPa Calm     93% 0.0in /  0mm WeatherDisplay:10.37 W/m2 FEW
05:35 2.1 °F /  -16.6 °C 1.1 °F /  -17.2 °C 990.1in /  33524.8hPa Calm     93% 0.0in /  0mm WeatherDisplay:10.37 W/m2 FEW
05:41 2.1 °F /  -16.6 °C 1.1 °F /  -17.2 °C 990.1in /  33524.8hPa Calm     93% 0.0in /  0mm WeatherDisplay:10.37 W/m2 FEW
05:46 2.1 °F /  -16.6 °C 1.1 °F /  -17.2 °C 990.1in /  33524.8hPa Calm     93% 0.0in /  0mm WeatherDisplay:10.37 W/m2 FEW
05:51 2.1 °F /  -16.6 °C 1.1 °F /  -17.2 °C 990.1in /  33524.8hPa Calm     93% 0.0in /  0mm WeatherDisplay:10.37 W/m2 FEW
05:56 2.1 °F /  -16.6 °C 1.1 °F /  -17.2 °C 990.1in /  33524.8hPa Calm     93% 0.0in /  0mm WeatherDisplay:10.37 W/m2 FEW
06:01 2.1 °F /  -16.6 °C 1.1 °F /  -17.2 °C 990.1in /  33524.8hPa Calm     93% 0.0in /  0mm WeatherDisplay:10.37 W/m2 FEW
06:04 2.1 °F /  -16.6 °C 1.1 °F /  -17.2 °C 990.1in /  33524.8hPa Calm     93% 0.0in /  0mm WeatherDisplay:10.37 W/m2 FEW
06:09 2.2 °F /  -16.6 °C 1.2 °F /  -17.1 °C 990.1in /  33524.8hPa Calm     93% 0.0in /  0mm WeatherDisplay:10.37 W/m2 FEW
06:14 2.2 °F /  -16.6 °C 1.2 °F /  -17.1 °C 990.1in /  33524.8hPa Calm     93% 0.0in /  0mm WeatherDisplay:10.37 W/m2 FEW
06:15 2.2 °F /  -16.6 °C 1.2 °F /  -17.1 °C 990.1in /  33524.8hPa Calm     93% 0.0in /  0mm WeatherDisplay:10.37 W/m2 FEW
06:20 2.2 °F /  -16.6 °C 1.2 °F /  -17.1 °C 990.1in /  33524.8hPa Calm     93% 0.0in /  0mm WeatherDisplay:10.37 W/m2 FEW
06:25 2.2 °F /  -16.6 °C 1.2 °F /  -17.1 °C 990.1in /  33524.8hPa Calm     93% 0.0in /  0mm WeatherDisplay:10.37 W/m2 FEW
06:30 2.2 °F /  -16.6 °C 1.2 °F /  -17.1 °C 990.1in /  33524.8hPa Calm     93% 0.0in /  0mm WeatherDisplay:10.37 W/m2 FEW
06:35 2.2 °F /  -16.6 °C 1.2 °F /  -17.1 °C 990.1in /  33524.8hPa Calm     93% 0.0in /  0mm WeatherDisplay:10.37 W/m2 FEW
06:40 2.2 °F /  -16.6 °C 1.2 °F /  -17.1 °C 990.1in /  33524.8hPa Calm     93% 0.0in /  0mm WeatherDisplay:10.37 W/m2 FEW
06:45 2.2 °F /  -16.6 °C 1.2 °F /  -17.1 °C 990.4in /  33534.9hPa Calm     93% 0.0in /  0mm WeatherDisplay:10.37 W/m2 FEW
06:55 2.2 °F /  -16.6 °C 1.2 °F /  -17.1 °C 990.4in /  33534.9hPa Calm     93% 0.0in /  0mm WeatherDisplay:10.37 W/m2 FEW
07:00 2.3 °F /  -16.5 °C 1.3 °F /  -17.1 °C 990.4in /  33534.9hPa Calm     93% 0.0in /  0mm WeatherDisplay:10.37 W/m2 FEW
07:06 2.3 °F /  -16.5 °C 1.3 °F /  -17.1 °C 990.4in /  33534.9hPa Calm     93% 0.3in /  7.62mm WeatherDisplay:10.37 W/m2 RA
07:11 2.3 °F /  -16.5 °C 1.3 °F /  -17.1 °C 990.4in /  33534.9hPa Calm     93% 0.3in /  7.62mm WeatherDisplay:10.37 W/m2 RA
07:16 2.3 °F /  -16.5 °C 1.3 °F /  -17.1 °C 990.4in /  33534.9hPa Calm     93% 0.3in /  7.62mm WeatherDisplay:10.37 W/m2 FEW
07:22 2.4 °F /  -16.4 °C 1.4 °F /  -17 °C 990.4in /  33534.9hPa Calm     93% 0.3in /  7.62mm WeatherDisplay:10.37 W/m2 FEW
07:27 2.4 °F /  -16.4 °C 1.4 °F /  -17 °C 990.4in /  33534.9hPa Calm   1.9mph /  3.1km/h 93% 0.3in /  7.62mm WeatherDisplay:10.37 W/m2 FEW
07:32 2.4 °F /  -16.4 °C 1.4 °F /  -17 °C 990.4in /  33534.9hPa Calm     93% 0.3in /  7.62mm WeatherDisplay:10.37 W/m2 FEW
07:37 2.4 °F /  -16.4 °C 1.4 °F /  -17 °C 990.4in /  33534.9hPa Calm     93% 0.3in /  7.62mm WeatherDisplay:10.37 W/m2 FEW
07:42 2.4 °F /  -16.4 °C 1.4 °F /  -17 °C 990.4in /  33534.9hPa Calm     93% 0.3in /  7.62mm WeatherDisplay:10.37 W/m2 FEW
07:47 2.4 °F /  -16.4 °C 1.4 °F /  -17 °C 990.4in /  33534.9hPa Calm     93% 0.3in /  7.62mm WeatherDisplay:10.37 W/m2 FEW
07:53 2.4 °F /  -16.4 °C 1.4 °F /  -17 °C 990.4in /  33534.9hPa Calm     93% 0.3in /  7.62mm WeatherDisplay:10.37 W/m2 FEW
07:58 2.4 °F /  -16.4 °C 1.4 °F /  -17 °C 990.4in /  33534.9hPa Calm     93% 0.3in /  7.62mm WeatherDisplay:10.37 W/m2 FEW
08:03 2.3 °F /  -16.5 °C 1.3 °F /  -17.1 °C 990.4in /  33534.9hPa Calm     93% 0.3in /  7.62mm WeatherDisplay:10.37 W/m2 FEW
08:08 2.3 °F /  -16.5 °C 1.3 °F /  -17.1 °C 990.7in /  33545.1hPa Calm     93% 0.0in /  0mm WeatherDisplay:10.37 W/m2 FEW
08:13 2.3 °F /  -16.5 °C 1.3 °F /  -17.1 °C 990.7in /  33545.1hPa Calm     93% 0.0in /  0mm WeatherDisplay:10.37 W/m2 FEW
08:18 2.4 °F /  -16.4 °C 1.4 °F /  -17 °C 990.7in /  33545.1hPa Calm     93% 0.3in /  7.62mm WeatherDisplay:10.37 W/m2 RA
08:24 2.4 °F /  -16.4 °C 1.4 °F /  -17 °C 990.7in /  33545.1hPa Calm     93% 0.3in /  7.62mm WeatherDisplay:10.37 W/m2 RA
08:29 2.5 °F /  -16.4 °C 1.5 °F /  -16.9 °C 990.7in /  33545.1hPa NW 2.7mph /  4.3km/h 5.6mph /  9km/h 93% 0.3in /  7.62mm WeatherDisplay:10.37 W/m2 FEW
08:34 2.4 °F /  -16.4 °C 1.4 °F /  -17 °C 991.1in /  33558.6hPa Calm     93% 0.3in /  7.62mm WeatherDisplay:10.37 W/m2 FEW
08:45 2.2 °F /  -16.6 °C 1.3 °F /  -17.1 °C 991.1in /  33558.6hPa West 1.8mph /  2.9km/h   94% 0.3in /  7.62mm WeatherDisplay:10.37 W/m2 FEW
08:50 2.1 °F /  -16.6 °C 1.1 °F /  -17.2 °C 991.1in /  33558.6hPa West 4.5mph /  7.2km/h 7.4mph /  11.9km/h 93% 0.3in /  7.62mm WeatherDisplay:10.37 W/m2 FEW
08:55 1.9 °F /  -16.7 °C 0.9 °F /  -17.3 °C 991.4in /  33568.8hPa WNW 0.8mph /  1.3km/h 5.6mph /  9km/h 93% 0.3in /  7.62mm WeatherDisplay:10.37 W/m2 FEW
09:00 1.9 °F /  -16.7 °C 1.0 °F /  -17.2 °C 991.4in /  33568.8hPa WNW 0.6mph /  1km/h 5.6mph /  9km/h 94% 0.3in /  7.62mm WeatherDisplay:10.37 W/m2 FEW
09:06 1.8 °F /  -16.8 °C 0.9 °F /  -17.3 °C 991.4in /  33568.8hPa Calm     94% 0.3in /  7.62mm WeatherDisplay:10.37 W/m2 FEW
09:11 1.8 °F /  -16.8 °C 0.9 °F /  -17.3 °C 991.4in /  33568.8hPa WSW 0.8mph /  1.3km/h 5.6mph /  9km/h 94% 0.3in /  7.62mm WeatherDisplay:10.37 W/m2 FEW
09:17 1.8 °F /  -16.8 °C 0.8 °F /  -17.3 °C 991.4in /  33568.8hPa West 0.6mph /  1km/h 5.6mph /  9km/h 93% 0.3in /  7.62mm WeatherDisplay:10.37 W/m2 FEW
09:22 1.7 °F /  -16.8 °C 0.7 °F /  -17.4 °C 991.8in /  33582.3hPa West 2.4mph /  3.9km/h 7.4mph /  11.9km/h 93% 0.0in /  0mm WeatherDisplay:10.37 W/m2 FEW
09:28 1.7 °F /  -16.8 °C 0.8 °F /  -17.3 °C 991.8in /  33582.3hPa NNW 5.1mph /  8.2km/h 5.6mph /  9km/h 94% 0.0in /  0mm WeatherDisplay:10.37 W/m2 FEW
09:33 1.7 °F /  -16.8 °C 0.8 °F /  -17.3 °C 991.8in /  33582.3hPa Calm     94% 0.0in /  0mm WeatherDisplay:10.37 W/m2 FEW
09:39 1.7 °F /  -16.8 °C 0.8 °F /  -17.3 °C 991.8in /  33582.3hPa Calm     94% 0.0in /  0mm WeatherDisplay:10.37 W/m2 FEW
09:44 1.7 °F /  -16.8 °C 0.8 °F /  -17.3 °C 991.8in /  33582.3hPa Calm     94% 0.0in /  0mm WeatherDisplay:10.37 W/m2 FEW
09:49 1.7 °F /  -16.8 °C 0.8 °F /  -17.3 °C 992.1in /  33592.5hPa Calm   1.6mph /  2.6km/h 94% 0.0in /  0mm WeatherDisplay:10.37 W/m2 FEW
09:55 1.7 °F /  -16.8 °C 0.8 °F /  -17.3 °C 992.1in /  33592.5hPa Calm     94% 0.0in /  0mm WeatherDisplay:10.37 W/m2 FEW
09:57 1.7 °F /  -16.8 °C 0.8 °F /  -17.3 °C 992.1in /  33592.5hPa Calm     94% 0.0in /  0mm WeatherDisplay:10.37 W/m2 FEW
10:04 1.7 °F /  -16.8 °C 0.8 °F /  -17.3 °C 992.1in /  33592.5hPa Calm     94% 0.0in /  0mm WeatherDisplay:10.37 W/m2 FEW
10:09 1.7 °F /  -16.8 °C 0.8 °F /  -17.3 °C 992.1in /  33592.5hPa Calm     94% 0.0in /  0mm WeatherDisplay:10.37 W/m2 FEW
10:14 1.7 °F /  -16.8 °C 0.7 °F /  -17.4 °C 992.1in /  33592.5hPa Calm     93% 0.0in /  0mm WeatherDisplay:10.37 W/m2 FEW
10:19 1.7 °F /  -16.8 °C 0.7 °F /  -17.4 °C 992.1in /  33592.5hPa NNW 1.1mph /  1.8km/h 3.7mph /  6km/h 93% 0.0in /  0mm WeatherDisplay:10.37 W/m2 FEW
10:24 1.8 °F /  -16.8 °C 0.8 °F /  -17.3 °C 992.1in /  33592.5hPa North 0.2mph /  0.3km/h 5.6mph /  9km/h 93% 0.0in /  0mm WeatherDisplay:10.37 W/m2 FEW
10:29 1.8 °F /  -16.8 °C 0.9 °F /  -17.3 °C 992.4in /  33602.7hPa Calm   3.7mph /  6km/h 94% 0.0in /  0mm WeatherDisplay:10.37 W/m2 FEW
10:33 1.8 °F /  -16.8 °C 0.9 °F /  -17.3 °C 992.4in /  33602.7hPa Calm   3.7mph /  6km/h 94% 0.0in /  0mm WeatherDisplay:10.37 W/m2 FEW
10:39 1.8 °F /  -16.8 °C 0.9 °F /  -17.3 °C 992.4in /  33602.7hPa NW 0.2mph /  0.3km/h 3.7mph /  6km/h 94% 0.0in /  0mm WeatherDisplay:10.37 W/m2 FEW
10:44 1.8 °F /  -16.8 °C 0.9 °F /  -17.3 °C 992.4in /  33602.7hPa Calm   7.4mph /  11.9km/h 94% 0.0in /  0mm WeatherDisplay:10.37 W/m2 FEW
10:49 1.8 °F /  -16.8 °C 0.9 °F /  -17.3 °C 992.4in /  33602.7hPa Calm     94% 0.0in /  0mm WeatherDisplay:10.37 W/m2 FEW
10:54 1.8 °F /  -16.8 °C 0.9 °F /  -17.3 °C 992.8in /  33616.2hPa Calm     94% 0.0in /  0mm WeatherDisplay:10.37 W/m2 FEW
10:59 1.8 °F /  -16.8 °C 0.9 °F /  -17.3 °C 992.8in /  33616.2hPa SSW 0.8mph /  1.3km/h 3.2mph /  5.1km/h 94% 0.0in /  0mm WeatherDisplay:10.37 W/m2 FEW
11:05 1.8 °F /  -16.8 °C 0.9 °F /  -17.3 °C 992.8in /  33616.2hPa Calm     94% 0.0in /  0mm WeatherDisplay:10.37 W/m2 FEW
11:10 1.8 °F /  -16.8 °C 0.9 °F /  -17.3 °C 992.8in /  33616.2hPa Calm     94% 0.0in /  0mm WeatherDisplay:10.37 W/m2 FEW
11:15 1.8 °F /  -16.8 °C 0.9 °F /  -17.3 °C 992.8in /  33616.2hPa WSW 1.3mph /  2.1km/h 5.6mph /  9km/h 94% 0.0in /  0mm WeatherDisplay:10.37 W/m2 FEW
11:21 1.8 °F /  -16.8 °C 0.9 °F /  -17.3 °C 992.8in /  33616.2hPa Calm     94% 0.0in /  0mm WeatherDisplay:10.37 W/m2 FEW
11:26 1.8 °F /  -16.8 °C 0.8 °F /  -17.3 °C 992.8in /  33616.2hPa Calm     93% 0.0in /  0mm WeatherDisplay:10.37 W/m2 FEW
11:31 1.8 °F /  -16.8 °C 0.9 °F /  -17.3 °C 992.8in /  33616.2hPa Calm     94% 0.0in /  0mm WeatherDisplay:10.37 W/m2 FEW
11:36 1.8 °F /  -16.8 °C 0.8 °F /  -17.3 °C 993.1in /  33626.4hPa Calm     93% 0.0in /  0mm WeatherDisplay:10.37 W/m2 FEW
11:42 1.7 °F /  -16.8 °C 0.7 °F /  -17.4 °C 993.1in /  33626.4hPa WSW 0.2mph /  0.3km/h 1.9mph /  3.1km/h 93% 0.0in /  0mm WeatherDisplay:10.37 W/m2 FEW
11:52 1.7 °F /  -16.8 °C 0.8 °F /  -17.3 °C 993.1in /  33626.4hPa WSW 0.2mph /  0.3km/h 5.6mph /  9km/h 94% 0.0in /  0mm WeatherDisplay:10.37 W/m2 FEW
11:57 1.7 °F /  -16.8 °C 0.7 °F /  -17.4 °C 993.1in /  33626.4hPa WNW 1.6mph /  2.6km/h 3.7mph /  6km/h 93% 0.0in /  0mm WeatherDisplay:10.37 W/m2 FEW
12:02 1.7 °F /  -16.8 °C 0.7 °F /  -17.4 °C 993.5in /  33639.9hPa Calm     93% 0.0in /  0mm WeatherDisplay:10.37 W/m2 FEW
12:07 1.7 °F /  -16.8 °C 0.7 °F /  -17.4 °C 993.5in /  33639.9hPa Calm     93% 0.0in /  0mm WeatherDisplay:10.37 W/m2 FEW
12:12 1.7 °F /  -16.8 °C 0.7 °F /  -17.4 °C 993.5in /  33639.9hPa Calm     93% 0.0in /  0mm WeatherDisplay:10.37 W/m2 FEW
12:17 1.7 °F /  -16.8 °C 0.7 °F /  -17.4 °C 993.5in /  33639.9hPa Calm     93% 0.0in /  0mm WeatherDisplay:10.37 W/m2 FEW
12:32 1.7 °F /  -16.8 °C 0.7 °F /  -17.4 °C 993.5in /  33639.9hPa Calm     93% 0.0in /  0mm WeatherDisplay:10.37 W/m2 FEW
12:38 1.8 °F /  -16.8 °C 0.8 °F /  -17.3 °C 993.5in /  33639.9hPa Calm     93% 0.0in /  0mm WeatherDisplay:10.37 W/m2 FEW
12:44 1.8 °F /  -16.8 °C 0.8 °F /  -17.3 °C 993.5in /  33639.9hPa Calm     93% 0.0in /  0mm WeatherDisplay:10.37 W/m2 FEW
12:49 1.8 °F /  -16.8 °C 0.8 °F /  -17.3 °C 993.5in /  33639.9hPa WSW 0.6mph /  1km/h 3.7mph /  6km/h 93% 0.0in /  0mm WeatherDisplay:10.37 W/m2 FEW
12:54 1.8 °F /  -16.8 °C 0.8 °F /  -17.3 °C 993.5in /  33639.9hPa Calm     93% 0.0in /  0mm WeatherDisplay:10.37 W/m2 FEW
12:59 1.8 °F /  -16.8 °C 0.8 °F /  -17.3 °C 993.5in /  33639.9hPa West 1.9mph /  3.1km/h 9.3mph /  15km/h 93% 0.0in /  0mm WeatherDisplay:10.37 W/m2 FEW
13:04 1.8 °F /  -16.8 °C 0.8 °F /  -17.3 °C 993.5in /  33639.9hPa Calm     93% 0.0in /  0mm WeatherDisplay:10.37 W/m2 FEW
13:10 1.8 °F /  -16.8 °C 0.9 °F /  -17.3 °C 993.8in /  33650.1hPa Calm     94% 0.0in /  0mm WeatherDisplay:10.37 W/m2 FEW
13:15 1.8 °F /  -16.8 °C 0.9 °F /  -17.3 °C 993.8in /  33650.1hPa Calm     94% 0.0in /  0mm WeatherDisplay:10.37 W/m2 FEW
13:31 1.8 °F /  -16.8 °C 0.8 °F /  -17.3 °C 994.1in /  33660.2hPa West 0.5mph /  0.8km/h 13.0mph /  20.9km/h 93% 0.0in /  0mm WeatherDisplay:10.37 W/m2 FEW
13:36 1.7 °F /  -16.8 °C 0.7 °F /  -17.4 °C 994.1in /  33660.2hPa SW 2.4mph /  3.9km/h 6.4mph /  10.3km/h 93% 0.0in /  0mm WeatherDisplay:10.37 W/m2 FEW
13:38 1.7 °F /  -16.8 °C 0.8 °F /  -17.3 °C 994.1in /  33660.2hPa WNW 4.0mph /  6.4km/h 5.6mph /  9km/h 94% 0.0in /  0mm WeatherDisplay:10.37 W/m2 FEW
13:44 1.7 °F /  -16.8 °C 0.8 °F /  -17.3 °C 994.1in /  33660.2hPa NW 6.6mph /  10.6km/h 18.5mph /  29.8km/h 94% 0.0in /  0mm WeatherDisplay:10.37 W/m2 FEW
13:49 1.6 °F /  -16.9 °C 0.7 °F /  -17.4 °C 994.1in /  33660.2hPa Calm     94% 0.0in /  0mm WeatherDisplay:10.37 W/m2 FEW
13:54 1.4 °F /  -17 °C 0.4 °F /  -17.6 °C 994.1in /  33660.2hPa West 0.3mph /  0.5km/h 4.8mph /  7.7km/h 93% 0.0in /  0mm WeatherDisplay:10.37 W/m2 FEW
13:56 1.4 °F /  -17 °C 0.4 °F /  -17.6 °C 994.5in /  33673.8hPa WSW 1.0mph /  1.6km/h 7.4mph /  11.9km/h 93% 0.0in /  0mm WeatherDisplay:10.37 W/m2 FEW
14:02 1.3 °F /  -17.1 °C 0.5 °F /  -17.5 °C 994.5in /  33673.8hPa WSW 2.9mph /  4.7km/h 5.6mph /  9km/h 94% 0.0in /  0mm WeatherDisplay:10.37 W/m2 FEW
14:07 1.3 °F /  -17.1 °C 0.4 °F /  -17.6 °C 994.5in /  33673.8hPa Calm     94% 0.0in /  0mm WeatherDisplay:10.37 W/m2 FEW
14:12 1.2 °F /  -17.1 °C 0.4 °F /  -17.6 °C 994.8in /  33683.9hPa NW 1.3mph /  2.1km/h 5.6mph /  9km/h 94% 0.0in /  0mm WeatherDisplay:10.37 W/m2 FEW
14:17 1.2 °F /  -17.1 °C 0.4 °F /  -17.6 °C 994.8in /  33683.9hPa Calm     94% 0.0in /  0mm WeatherDisplay:10.37 W/m2 FEW
14:22 1.2 °F /  -17.1 °C 0.4 °F /  -17.6 °C 994.8in /  33683.9hPa Calm     94% 0.0in /  0mm WeatherDisplay:10.37 W/m2 FEW
14:27 1.2 °F /  -17.1 °C 0.2 °F /  -17.7 °C 994.8in /  33683.9hPa Calm     93% 0.0in /  0mm WeatherDisplay:10.37 W/m2 FEW
14:32 1.1 °F /  -17.2 °C 0.1 °F /  -17.7 °C 994.8in /  33683.9hPa NW 1.6mph /  2.6km/h 9.3mph /  15km/h 93% 0.0in /  0mm WeatherDisplay:10.37 W/m2 FEW
14:37 0.9 °F /  -17.3 °C 0.1 °F /  -17.7 °C 995.1in /  33694.1hPa NW 0.6mph /  1km/h 5.6mph /  9km/h 94% 0.0in /  0mm WeatherDisplay:10.37 W/m2 FEW
14:42 0.9 °F /  -17.3 °C 0.1 °F /  -17.7 °C 995.1in /  33694.1hPa SW 4.5mph /  7.2km/h 11.1mph /  17.9km/h 94% 0.0in /  0mm WeatherDisplay:10.37 W/m2 FEW
14:48 0.9 °F /  -17.3 °C -0.1 °F /  -17.8 °C 995.1in /  33694.1hPa West 1.3mph /  2.1km/h 5.6mph /  9km/h 93% 0.0in /  0mm WeatherDisplay:10.37 W/m2 FEW
14:53 0.9 °F /  -17.3 °C -0.1 °F /  -17.8 °C 995.5in /  33707.6hPa Calm   5.6mph /  9km/h 93% 0.0in /  0mm WeatherDisplay:10.37 W/m2 FEW
14:59 0.8 °F /  -17.3 °C 0.0 °F /  -17.8 °C 995.5in /  33707.6hPa WNW 2.1mph /  3.4km/h 2.1mph /  3.4km/h 94% 0.0in /  0mm WeatherDisplay:10.37 W/m2 FEW
15:04 0.8 °F /  -17.3 °C -0.1 °F /  -17.8 °C 995.5in /  33707.6hPa Calm     94% 0.0in /  0mm WeatherDisplay:10.37 W/m2 FEW
15:09 0.8 °F /  -17.3 °C -0.1 °F /  -17.8 °C 995.5in /  33707.6hPa Calm   3.7mph /  6km/h 94% 0.0in /  0mm WeatherDisplay:10.37 W/m2 FEW
15:14 0.8 °F /  -17.3 °C -0.1 °F /  -17.8 °C 995.5in /  33707.6hPa Calm   3.7mph /  6km/h 94% 0.0in /  0mm WeatherDisplay:10.37 W/m2 FEW
15:19 0.7 °F /  -17.4 °C -0.2 °F /  -17.9 °C 995.5in /  33707.6hPa Calm   5.6mph /  9km/h 94% 0.0in /  0mm WeatherDisplay:10.37 W/m2 FEW
15:24 0.6 °F /  -17.4 °C -0.2 °F /  -17.9 °C 995.8in /  33717.8hPa Calm     94% 0.0in /  0mm WeatherDisplay:10.37 W/m2 FEW
15:29 0.6 °F /  -17.4 °C -0.2 °F /  -17.9 °C 995.8in /  33717.8hPa Calm     94% 0.0in /  0mm WeatherDisplay:10.37 W/m2 FEW
15:35 0.6 °F /  -17.4 °C -0.3 °F /  -17.9 °C 995.8in /  33717.8hPa Calm   5.6mph /  9km/h 94% 0.0in /  0mm WeatherDisplay:10.37 W/m2 FEW
15:41 0.5 °F /  -17.5 °C -0.3 °F /  -17.9 °C 995.8in /  33717.8hPa West 0.6mph /  1km/h 5.6mph /  9km/h 94% 0.0in /  0mm WeatherDisplay:10.37 W/m2 FEW
15:46 0.5 °F /  -17.5 °C -0.3 °F /  -17.9 °C 996.2in /  33731.3hPa Calm     94% 0.0in /  0mm WeatherDisplay:10.37 W/m2 FEW
15:51 0.5 °F /  -17.5 °C -0.3 °F /  -17.9 °C 996.2in /  33731.3hPa Calm     94% 0.0in /  0mm WeatherDisplay:10.37 W/m2 FEW
15:53 0.5 °F /  -17.5 °C -0.3 °F /  -17.9 °C 996.2in /  33731.3hPa WNW 3.5mph /  5.6km/h 11.1mph /  17.9km/h 94% 0.0in /  0mm WeatherDisplay:10.37 W/m2 FEW
15:59 0.6 °F /  -17.4 °C -0.3 °F /  -17.9 °C 996.2in /  33731.3hPa Calm     94% 0.0in /  0mm WeatherDisplay:10.37 W/m2 FEW
16:04 0.6 °F /  -17.4 °C -0.3 °F /  -17.9 °C 996.5in /  33741.5hPa WSW 3.2mph /  5.1km/h 9.3mph /  15km/h 94% 0.0in /  0mm WeatherDisplay:10.37 W/m2 FEW
16:09 0.5 °F /  -17.5 °C -0.3 °F /  -17.9 °C 996.2in /  33731.3hPa Calm   3.7mph /  6km/h 94% 0.0in /  0mm WeatherDisplay:10.37 W/m2 FEW
16:14 0.4 °F /  -17.6 °C -0.4 °F /  -18 °C 996.5in /  33741.5hPa West 0.8mph /  1.3km/h 11.1mph /  17.9km/h 94% 0.0in /  0mm WeatherDisplay:10.37 W/m2 FEW
16:19 0.4 °F /  -17.6 °C -0.4 °F /  -18 °C 996.5in /  33741.5hPa Calm   1.9mph /  3.1km/h 94% 0.0in /  0mm WeatherDisplay:10.37 W/m2 FEW
16:24 0.4 °F /  -17.6 °C -0.4 °F /  -18 °C 996.5in /  33741.5hPa Calm   1.9mph /  3.1km/h 94% 0.0in /  0mm WeatherDisplay:10.37 W/m2 FEW
16:31 0.4 °F /  -17.6 °C -0.4 °F /  -18 °C 996.5in /  33741.5hPa Calm   9.3mph /  15km/h 94% 0.0in /  0mm WeatherDisplay:10.37 W/m2 FEW
16:37 0.4 °F /  -17.6 °C -0.4 °F /  -18 °C 996.8in /  33751.6hPa West 0.6mph /  1km/h 3.7mph /  6km/h 94% 0.0in /  0mm WeatherDisplay:10.37 W/m2 FEW
16:38 0.4 °F /  -17.6 °C -0.4 °F /  -18 °C 996.8in /  33751.6hPa Calm     94% 0.0in /  0mm WeatherDisplay:10.37 W/m2 FEW
16:43 0.4 °F /  -17.6 °C -0.4 °F /  -18 °C 996.8in /  33751.6hPa Calm     94% 0.0in /  0mm WeatherDisplay:10.37 W/m2 FEW
16:48 0.4 °F /  -17.6 °C -0.4 °F /  -18 °C 996.8in /  33751.6hPa NNW 1.4mph /  2.3km/h 5.6mph /  9km/h 94% 0.0in /  0mm WeatherDisplay:10.37 W/m2 FEW
16:53 0.4 °F /  -17.6 °C -0.4 °F /  -18 °C 996.8in /  33751.6hPa Calm     94% 0.0in /  0mm WeatherDisplay:10.37 W/m2 FEW
16:59 0.4 °F /  -17.6 °C -0.4 °F /  -18 °C 996.8in /  33751.6hPa Calm     94% 0.0in /  0mm WeatherDisplay:10.37 W/m2 FEW
17:04 0.3 °F /  -17.6 °C -0.5 °F /  -18.1 °C 996.8in /  33751.6hPa NNE 1.4mph /  2.3km/h 7.4mph /  11.9km/h 94% 0.0in /  0mm WeatherDisplay:10.37 W/m2 FEW
17:09 0.3 °F /  -17.6 °C -0.5 °F /  -18.1 °C 997.2in /  33765.2hPa NNW 1.0mph /  1.6km/h 5.6mph /  9km/h 94% 0.0in /  0mm WeatherDisplay:10.37 W/m2 FEW
17:19 0.3 °F /  -17.6 °C -0.5 °F /  -18.1 °C 997.2in /  33765.2hPa Calm     94% 0.0in /  0mm WeatherDisplay:10.37 W/m2 FEW
17:24 0.3 °F /  -17.6 °C -0.5 °F /  -18.1 °C 997.2in /  33765.2hPa WNW 2.3mph /  3.7km/h 5.6mph /  9km/h 94% 0.0in /  0mm WeatherDisplay:10.37 W/m2 FEW
17:29 0.3 °F /  -17.6 °C -0.5 °F /  -18.1 °C 997.2in /  33765.2hPa WSW 0.3mph /  0.5km/h 5.6mph /  9km/h 94% 0.0in /  0mm WeatherDisplay:10.37 W/m2 FEW
17:34 0.3 °F /  -17.6 °C -0.5 °F /  -18.1 °C 997.5in /  33775.4hPa Calm   5.6mph /  9km/h 94% 0.0in /  0mm WeatherDisplay:10.37 W/m2 FEW
17:39 0.3 °F /  -17.6 °C -0.6 °F /  -18.1 °C 997.5in /  33775.4hPa Calm     94% 0.0in /  0mm WeatherDisplay:10.37 W/m2 FEW
17:45 0.3 °F /  -17.6 °C -0.6 °F /  -18.1 °C 997.5in /  33775.4hPa Calm     94% 0.0in /  0mm WeatherDisplay:10.37 W/m2 FEW
17:50 0.3 °F /  -17.6 °C -0.6 °F /  -18.1 °C 997.5in /  33775.4hPa WNW 0.3mph /  0.5km/h 1.9mph /  3.1km/h 94% 0.0in /  0mm WeatherDisplay:10.37 W/m2 FEW
17:55 0.3 °F /  -17.6 °C -0.6 °F /  -18.1 °C 997.5in /  33775.4hPa WNW 1.0mph /  1.6km/h   94% 0.0in /  0mm WeatherDisplay:10.37 W/m2 FEW
18:00 0.3 °F /  -17.6 °C -0.6 °F /  -18.1 °C 997.9in /  33788.9hPa Calm     94% 0.0in /  0mm WeatherDisplay:10.37 W/m2 FEW
18:05 0.2 °F /  -17.7 °C -0.6 °F /  -18.1 °C 997.9in /  33788.9hPa Calm     94% 0.0in /  0mm WeatherDisplay:10.37 W/m2 FEW
20:27 -0.2 °F /  -17.9 °C -1.2 °F /  -18.4 °C 999.2in /  33832.9hPa Calm     93% 0.0in /  0mm WeatherDisplay:10.37 W/m2 FEW
20:32 -0.1 °F /  -17.8 °C -1.1 °F /  -18.4 °C 999.2in /  33832.9hPa Calm     93% 0.0in /  0mm WeatherDisplay:10.37 W/m2 FEW
20:37 -0.1 °F /  -17.8 °C -1.1 °F /  -18.4 °C 999.2in /  33832.9hPa WNW 0.8mph /  1.3km/h 1.9mph /  3.1km/h 93% 0.0in /  0mm WeatherDisplay:10.37 W/m2 FEW
20:43 -0.2 °F /  -17.9 °C -1.2 °F /  -18.4 °C 999.2in /  33832.9hPa West 0.3mph /  0.5km/h 3.7mph /  6km/h 93% 0.0in /  0mm WeatherDisplay:10.37 W/m2 FEW
20:48 -0.3 °F /  -17.9 °C -1.3 °F /  -18.5 °C 999.5in /  33843.1hPa SW 0.2mph /  0.3km/h 5.6mph /  9km/h 93% 0.0in /  0mm WeatherDisplay:10.37 W/m2 FEW
20:51 -0.3 °F /  -17.9 °C -1.3 °F /  -18.5 °C 999.5in /  33843.1hPa WNW 0.2mph /  0.3km/h 1.6mph /  2.6km/h 93% 0.0in /  0mm WeatherDisplay:10.37 W/m2 FEW
20:57 -0.3 °F /  -17.9 °C -1.2 °F /  -18.4 °C 999.5in /  33843.1hPa NNW 4.7mph /  7.6km/h 7.4mph /  11.9km/h 94% 0.0in /  0mm WeatherDisplay:10.37 W/m2 FEW
21:02 -0.3 °F /  -17.9 °C -1.2 °F /  -18.4 °C 999.5in /  33843.1hPa West 0.2mph /  0.3km/h 4.8mph /  7.7km/h 94% 0.0in /  0mm WeatherDisplay:10.37 W/m2 FEW
21:07 -0.3 °F /  -17.9 °C -1.2 °F /  -18.4 °C 999.5in /  33843.1hPa West 0.6mph /  1km/h   94% 0.0in /  0mm WeatherDisplay:10.37 W/m2 FEW
21:13 -0.3 °F /  -17.9 °C -1.3 °F /  -18.5 °C 999.9in /  33856.6hPa SW 2.1mph /  3.4km/h 5.6mph /  9km/h 93% 0.0in /  0mm WeatherDisplay:10.37 W/m2 FEW
21:18 -0.3 °F /  -17.9 °C -1.3 °F /  -18.5 °C 999.9in /  33856.6hPa Calm     93% 0.0in /  0mm WeatherDisplay:10.37 W/m2 FEW
21:21 -0.3 °F /  -17.9 °C -1.3 °F /  -18.5 °C 999.9in /  33856.6hPa WSW 1.3mph /  2.1km/h 5.6mph /  9km/h 93% 0.0in /  0mm WeatherDisplay:10.37 W/m2 FEW
21:26 -0.4 °F /  -18 °C -1.4 °F /  -18.6 °C 999.9in /  33856.6hPa NE 1.0mph /  1.6km/h 11.1mph /  17.9km/h 93% 0.0in /  0mm WeatherDisplay:10.37 W/m2 FEW
21:34 -0.4 °F /  -18 °C -1.4 °F /  -18.6 °C 999.9in /  33856.6hPa WNW 1.9mph /  3.1km/h 5.6mph /  9km/h 93% 0.0in /  0mm WeatherDisplay:10.37 W/m2 FEW
21:39 -0.5 °F /  -18.1 °C -1.5 °F /  -18.6 °C 999.9in /  33856.6hPa West 0.3mph /  0.5km/h   93% 0.0in /  0mm WeatherDisplay:10.37 W/m2 FEW
21:44 -0.6 °F /  -18.1 °C -1.6 °F /  -18.7 °C 999.9in /  33856.6hPa Calm   5.6mph /  9km/h 93% 0.0in /  0mm WeatherDisplay:10.37 W/m2 FEW
21:49 -0.6 °F /  -18.1 °C -1.6 °F /  -18.7 °C 1000.2in /  33866.8hPa NW 6.1mph /  9.8km/h 11.1mph /  17.9km/h 93% 0.0in /  0mm WeatherDisplay:10.37 W/m2 FEW
21:54 -0.6 °F /  -18.1 °C -1.6 °F /  -18.7 °C 1000.6in /  33880.3hPa WSW 3.9mph /  6.3km/h 7.4mph /  11.9km/h 93% 0.0in /  0mm WeatherDisplay:10.37 W/m2 FEW
21:59 -0.8 °F /  -18.2 °C -1.8 °F /  -18.8 °C 1000.6in /  33880.3hPa NNW 0.6mph /  1km/h 13.0mph /  20.9km/h 93% 0.0in /  0mm WeatherDisplay:10.37 W/m2 FEW
22:06 -1.1 °F /  -18.4 °C -2.1 °F /  -18.9 °C 1000.6in /  33880.3hPa West 10.3mph /  16.6km/h 16.7mph /  26.9km/h 93% 0.0in /  0mm WeatherDisplay:10.37 W/m2 FEW
22:11 -1.2 °F /  -18.4 °C -2.2 °F /  -19 °C 1000.9in /  33890.5hPa NNW 1.3mph /  2.1km/h 13.0mph /  20.9km/h 93% 0.0in /  0mm WeatherDisplay:10.37 W/m2 FEW
22:17 -1.3 °F /  -18.5 °C -2.4 °F /  -19.1 °C 1000.9in /  33890.5hPa NNW 2.9mph /  4.7km/h 7.4mph /  11.9km/h 92% 0.0in /  0mm WeatherDisplay:10.37 W/m2 FEW
22:24 -1.3 °F /  -18.5 °C -2.4 °F /  -19.1 °C 1000.9in /  33890.5hPa West 0.8mph /  1.3km/h 3.7mph /  6km/h 92% 0.0in /  0mm WeatherDisplay:10.37 W/m2 FEW
22:29 -1.4 °F /  -18.6 °C -2.5 °F /  -19.2 °C 1000.9in /  33890.5hPa West 4.5mph /  7.2km/h 13.0mph /  20.9km/h 92% 0.0in /  0mm WeatherDisplay:10.37 W/m2 FEW
22:34 -1.5 °F /  -18.6 °C -2.8 °F /  -19.3 °C 1001.2in /  33900.6hPa WNW 3.1mph /  5km/h 9.3mph /  15km/h 91% 0.0in /  0mm WeatherDisplay:10.37 W/m2 FEW
22:40 -1.6 °F /  -18.7 °C -2.9 °F /  -19.4 °C 1001.2in /  33900.6hPa WNW 1.9mph /  3.1km/h 6.4mph /  10.3km/h 91% 0.0in /  0mm WeatherDisplay:10.37 W/m2 FEW
22:45 -1.7 °F /  -18.7 °C -3.0 °F /  -19.4 °C 1001.2in /  33900.6hPa NW 4.0mph /  6.4km/h 13.0mph /  20.9km/h 91% 0.0in /  0mm WeatherDisplay:10.37 W/m2 FEW
22:50 -1.8 °F /  -18.8 °C -3.2 °F /  -19.6 °C 1001.6in /  33914.2hPa NNE 1.4mph /  2.3km/h 7.4mph /  11.9km/h 90% 0.0in /  0mm WeatherDisplay:10.37 W/m2 FEW
22:55 -1.8 °F /  -18.8 °C -3.3 °F /  -19.6 °C 1001.6in /  33914.2hPa NW 3.9mph /  6.3km/h 14.8mph /  23.8km/h 90% 0.0in /  0mm WeatherDisplay:10.37 W/m2 FEW
23:00 -1.8 °F /  -18.8 °C -3.3 °F /  -19.6 °C 1001.6in /  33914.2hPa NNW 5.1mph /  8.2km/h 18.5mph /  29.8km/h 90% 0.0in /  0mm WeatherDisplay:10.37 W/m2 FEW
23:06 -1.9 °F /  -18.8 °C -3.3 °F /  -19.6 °C 1001.6in /  33914.2hPa WNW 5.0mph /  8km/h 13.0mph /  20.9km/h 90% 0.0in /  0mm WeatherDisplay:10.37 W/m2 FEW
23:09 -1.9 °F /  -18.8 °C -3.3 °F /  -19.6 °C 1001.9in /  33924.3hPa WNW 1.8mph /  2.9km/h 5.6mph /  9km/h 90% 0.0in /  0mm WeatherDisplay:10.37 W/m2 FEW
23:15 -1.9 °F /  -18.8 °C -3.3 °F /  -19.6 °C 1001.9in /  33924.3hPa WNW 1.1mph /  1.8km/h 5.6mph /  9km/h 90% 0.0in /  0mm WeatherDisplay:10.37 W/m2 FEW
23:20 -1.9 °F /  -18.8 °C -3.4 °F /  -19.7 °C 1002.3in /  33937.9hPa WNW 0.2mph /  0.3km/h 3.7mph /  6km/h 90% 0.0in /  0mm WeatherDisplay:10.37 W/m2 FEW
23:25 -2.0 °F /  -18.9 °C -3.4 °F /  -19.7 °C 1002.3in /  33937.9hPa Calm   1.9mph /  3.1km/h 90% 0.0in /  0mm WeatherDisplay:10.37 W/m2 FEW
23:30 -2.1 °F /  -18.9 °C -3.5 °F /  -19.7 °C 1002.3in /  33937.9hPa West 3.1mph /  5km/h 6.4mph /  10.3km/h 90% 0.0in /  0mm WeatherDisplay:10.37 W/m2 FEW
23:35 -2.2 °F /  -19 °C -3.6 °F /  -19.8 °C 1002.6in /  33948hPa NW 10.6mph /  17.1km/h 20.4mph /  32.8km/h 90% 0.0in /  0mm WeatherDisplay:10.37 W/m2 FEW
23:40 -2.2 °F /  -19 °C -3.7 °F /  -19.8 °C 1002.6in /  33948hPa North 2.3mph /  3.7km/h 7.4mph /  11.9km/h 90% 0.0in /  0mm WeatherDisplay:10.37 W/m2 FEW
23:45 -2.2 °F /  -19 °C -3.5 °F /  -19.7 °C 1002.6in /  33948hPa NNW 2.6mph /  4.2km/h 5.6mph /  9km/h 91% 0.0in /  0mm WeatherDisplay:10.37 W/m2 FEW
23:50 -2.3 °F /  -19.1 °C -3.6 °F /  -19.8 °C 1002.6in /  33948hPa WNW 1.3mph /  2.1km/h 4.8mph /  7.7km/h 91% 0.0in /  0mm WeatherDisplay:10.37 W/m2 FEW
23:55 -2.3 °F /  -19.1 °C -3.6 °F /  -19.8 °C 1002.9in /  33958.2hPa WNW 2.9mph /  4.7km/h 7.4mph /  11.9km/h 91% 0.0in /  0mm WeatherDisplay:10.37 W/m2 FEW
Tuulensuunkaari, Veikkola, Suomi
Compliments of Weather Underground - 2.5 mb